createdAt,value
2022-10-23T00:01:12.327Z,100.00
2022-10-23T00:03:39.116Z,100.00
2022-10-23T00:06:06.137Z,100.00
2022-10-23T00:08:32.671Z,100.00
2022-10-23T00:10:59.394Z,100.00
2022-10-23T00:13:25.966Z,100.00
2022-10-23T00:18:23.856Z,100.00
2022-10-23T00:20:50.387Z,100.00
2022-10-23T00:23:17.629Z,100.00
2022-10-23T00:25:44.153Z,100.00
2022-10-23T00:28:10.984Z,100.00
2022-10-23T00:30:37.481Z,99.55
2022-10-23T00:33:03.987Z,100.00
2022-10-23T00:35:30.497Z,100.00
2022-10-23T00:37:57.034Z,100.00
2022-10-23T00:40:23.658Z,100.00
2022-10-23T00:42:50.173Z,100.00
2022-10-23T00:45:26.974Z,100.00
2022-10-23T00:47:54.870Z,100.00
2022-10-23T00:50:24.192Z,100.00
2022-10-23T00:52:52.915Z,100.00
2022-10-23T00:55:21.372Z,100.00
2022-10-23T00:57:49.831Z,100.00
2022-10-23T01:00:29.356Z,100.00
2022-10-23T01:02:57.459Z,100.00
2022-10-23T01:05:44.801Z,100.00
2022-10-23T01:08:23.115Z,100.00
2022-10-23T01:10:58.619Z,100.00
2022-10-23T01:13:34.405Z,100.00
2022-10-23T01:16:17.385Z,100.00
2022-10-23T01:19:21.291Z,100.00
2022-10-23T01:22:13.349Z,100.00
2022-10-23T01:24:59.539Z,100.00
2022-10-23T01:27:48.347Z,100.00
2022-10-23T01:30:17.091Z,100.00
2022-10-23T01:32:56.647Z,100.00
2022-10-23T01:35:29.143Z,100.00
2022-10-23T01:38:07.670Z,100.00
2022-10-23T01:40:42.638Z,100.00
2022-10-23T01:43:16.875Z,100.00
2022-10-23T01:45:47.724Z,100.00
2022-10-23T01:48:18.062Z,100.00
2022-10-23T01:50:46.551Z,100.00
2022-10-23T01:53:13.144Z,100.00
2022-10-23T01:58:16.043Z,100.00
2022-10-23T02:00:45.633Z,100.00
2022-10-23T02:03:15.600Z,100.00
2022-10-23T02:05:44.128Z,100.00
2022-10-23T02:08:11.075Z,100.00
2022-10-23T02:10:49.347Z,100.00
2022-10-23T02:13:46.436Z,100.00
2022-10-23T02:16:20.376Z,100.00
2022-10-23T02:18:59.232Z,100.00
2022-10-23T02:22:04.228Z,100.00
2022-10-23T02:24:43.579Z,100.00
2022-10-23T02:27:18.178Z,100.00
2022-10-23T02:29:51.168Z,100.00
2022-10-23T02:32:20.691Z,100.00
2022-10-23T02:34:47.985Z,100.00
2022-10-23T02:37:15.246Z,100.00
2022-10-23T02:39:42.079Z,100.00
2022-10-23T02:42:17.359Z,100.00
2022-10-23T02:44:50.107Z,100.00
2022-10-23T02:47:40.991Z,100.00
2022-10-23T02:50:07.662Z,100.00
2022-10-23T02:52:41.951Z,100.00
2022-10-23T02:55:16.615Z,100.00
2022-10-23T02:57:55.983Z,100.00
2022-10-23T03:00:23.296Z,100.00
2022-10-23T03:03:03.267Z,100.00
2022-10-23T03:05:36.228Z,100.00
2022-10-23T03:08:05.314Z,100.00
2022-10-23T03:10:32.070Z,100.00
2022-10-23T03:12:58.935Z,100.00
2022-10-23T03:15:25.526Z,100.00
2022-10-23T03:17:52.115Z,100.00
2022-10-23T03:20:19.127Z,100.00
2022-10-23T03:22:46.044Z,100.00
2022-10-23T03:25:12.793Z,100.00
2022-10-23T03:27:39.314Z,100.00
2022-10-23T03:30:07.291Z,100.00
2022-10-23T03:32:34.020Z,100.00
2022-10-23T03:35:00.651Z,100.00
2022-10-23T03:37:27.188Z,100.00
2022-10-23T03:39:53.683Z,100.00
2022-10-23T03:42:20.227Z,100.00
2022-10-23T03:44:46.754Z,100.00
2022-10-23T03:47:13.345Z,100.00
2022-10-23T03:49:40.262Z,100.00
2022-10-23T03:52:07.933Z,100.00
2022-10-23T03:54:35.024Z,100.00
2022-10-23T03:57:01.848Z,100.00
2022-10-23T03:59:28.447Z,100.00
2022-10-23T04:01:55.363Z,100.00
2022-10-23T04:04:22.156Z,100.00
2022-10-23T04:06:48.698Z,100.00
2022-10-23T04:09:15.752Z,100.00
2022-10-23T04:11:42.240Z,100.00
2022-10-23T04:14:12.335Z,100.00
2022-10-23T04:16:39.152Z,100.00
2022-10-23T04:19:05.764Z,100.00
2022-10-23T04:21:32.336Z,100.00
2022-10-23T04:23:58.852Z,100.00
2022-10-23T04:26:25.372Z,100.00
2022-10-23T04:28:51.967Z,100.00
2022-10-23T04:31:19.661Z,100.00
2022-10-23T04:33:46.276Z,100.00
2022-10-23T04:36:12.885Z,100.00
2022-10-23T04:38:39.415Z,100.00
2022-10-23T04:41:06.257Z,100.00
2022-10-23T04:43:32.766Z,100.00
2022-10-23T04:45:59.402Z,100.00
2022-10-23T04:48:28.458Z,100.00
2022-10-23T04:50:57.595Z,100.00
2022-10-23T04:53:25.004Z,100.00
2022-10-23T04:55:51.853Z,100.00
2022-10-23T04:58:19.032Z,100.00
2022-10-23T05:00:46.550Z,100.00
2022-10-23T05:03:13.519Z,100.00
2022-10-23T05:05:40.800Z,100.00
2022-10-23T05:08:07.668Z,100.00
2022-10-23T05:10:34.437Z,100.00
2022-10-23T05:13:01.419Z,100.00
2022-10-23T05:15:27.974Z,100.00
2022-10-23T05:17:59.915Z,100.00
2022-10-23T05:20:31.795Z,100.00
2022-10-23T05:23:00.554Z,100.00
2022-10-23T05:25:27.130Z,100.00
2022-10-23T05:27:53.672Z,100.00
2022-10-23T05:30:20.238Z,100.00
2022-10-23T05:32:46.995Z,100.00
2022-10-23T05:35:19.234Z,100.00
2022-10-23T05:37:47.919Z,100.00
2022-10-23T05:40:14.575Z,100.00
2022-10-23T05:42:41.815Z,100.00
2022-10-23T05:45:09.307Z,100.00
2022-10-23T05:47:35.804Z,100.00
2022-10-23T05:50:02.327Z,100.00
2022-10-23T05:52:28.928Z,100.00
2022-10-23T05:54:55.520Z,100.00
2022-10-23T05:57:22.113Z,100.00
2022-10-23T05:59:48.621Z,100.00
2022-10-23T06:02:15.171Z,98.60
2022-10-23T06:04:41.725Z,97.07
2022-10-23T06:07:08.268Z,95.21
2022-10-23T06:09:34.822Z,93.67
2022-10-23T06:12:02.744Z,92.64
2022-10-23T06:14:29.286Z,90.86
2022-10-23T06:16:55.871Z,90.27
2022-10-23T06:19:22.472Z,90.12
2022-10-23T06:21:49.000Z,89.35
2022-10-23T06:24:15.560Z,87.48
2022-10-23T06:26:42.064Z,84.54
2022-10-23T06:29:08.631Z,84.10
2022-10-23T06:31:35.190Z,84.58
2022-10-23T06:34:01.746Z,83.15
2022-10-23T06:36:28.415Z,81.51
2022-10-23T06:38:56.461Z,79.13
2022-10-23T06:41:23.393Z,77.54
2022-10-23T06:43:51.521Z,77.68
2022-10-23T06:46:19.228Z,76.22
2022-10-23T06:48:45.830Z,77.83
2022-10-23T06:51:14.142Z,77.83
2022-10-23T06:53:41.430Z,76.16
2022-10-23T06:56:09.139Z,74.13
2022-10-23T06:58:37.404Z,73.25
2022-10-23T07:01:07.075Z,72.73
2022-10-23T07:03:34.881Z,72.80
2022-10-23T07:06:06.878Z,72.46
2022-10-23T07:08:33.774Z,71.61
2022-10-23T07:11:08.849Z,71.76
2022-10-23T07:13:36.965Z,72.16
2022-10-23T07:16:18.217Z,73.32
2022-10-23T07:18:46.288Z,71.88
2022-10-23T07:21:12.936Z,68.89
2022-10-23T07:23:39.586Z,68.00
2022-10-23T07:26:14.292Z,67.40
2022-10-23T07:28:41.642Z,68.32
2022-10-23T07:31:08.318Z,65.85
2022-10-23T07:33:34.850Z,64.76
2022-10-23T07:36:03.658Z,64.92
2022-10-23T07:38:30.195Z,62.68
2022-10-23T07:40:59.204Z,60.84
2022-10-23T07:43:26.267Z,59.69
2022-10-23T07:45:54.142Z,58.96
2022-10-23T07:48:21.820Z,56.88
2022-10-23T07:50:48.340Z,56.87
2022-10-23T07:53:18.669Z,56.23
2022-10-23T07:55:54.039Z,55.91
2022-10-23T07:58:21.024Z,54.83
2022-10-23T08:00:58.924Z,54.56
2022-10-23T08:03:27.337Z,53.54
2022-10-23T08:05:54.887Z,51.83
2022-10-23T08:08:22.730Z,49.47
2022-10-23T08:10:50.788Z,48.47
2022-10-23T08:13:20.324Z,47.74
2022-10-23T08:15:48.393Z,45.37
2022-10-23T08:18:15.446Z,43.01
2022-10-23T08:20:43.031Z,41.15
2022-10-23T08:23:12.330Z,41.59
2022-10-23T08:25:40.328Z,41.13
2022-10-23T08:28:08.030Z,39.86
2022-10-23T08:30:35.157Z,41.07
2022-10-23T08:33:06.500Z,41.29
2022-10-23T08:35:37.756Z,39.36
2022-10-23T08:38:05.588Z,38.31
2022-10-23T08:40:32.873Z,37.49
2022-10-23T08:43:19.051Z,36.72
2022-10-23T08:45:47.827Z,35.03
2022-10-23T08:48:30.220Z,34.55
2022-10-23T08:51:05.401Z,35.85
2022-10-23T08:53:36.579Z,34.04
2022-10-23T08:56:09.391Z,31.24
2022-10-23T08:58:35.896Z,30.45
2022-10-23T09:01:18.393Z,32.70
2022-10-23T09:03:45.075Z,32.13
2022-10-23T09:06:34.452Z,30.60
2022-10-23T09:09:25.629Z,30.54
2022-10-23T09:12:15.209Z,32.93
2022-10-23T09:15:25.758Z,34.05
2022-10-23T09:17:59.866Z,36.21
2022-10-23T09:20:31.565Z,37.48
2022-10-23T09:23:01.861Z,38.44
2022-10-23T09:25:33.834Z,40.32
2022-10-23T09:28:05.236Z,41.53
2022-10-23T09:30:42.339Z,41.89
2022-10-23T09:33:21.812Z,40.29
2022-10-23T09:35:58.669Z,42.86
2022-10-23T09:38:38.804Z,43.33
2022-10-23T09:41:19.249Z,41.11
2022-10-23T09:43:46.366Z,43.73
2022-10-23T09:46:12.952Z,41.78
2022-10-23T09:48:42.380Z,44.57
2022-10-23T09:51:21.886Z,45.25
2022-10-23T09:53:53.013Z,43.15
2022-10-23T09:56:28.330Z,44.68
2022-10-23T09:59:02.348Z,44.60
2022-10-23T10:01:36.301Z,45.60
2022-10-23T10:04:03.220Z,45.04
2022-10-23T10:06:33.804Z,42.30
2022-10-23T10:09:05.715Z,41.23
2022-10-23T10:11:43.463Z,43.23
2022-10-23T10:14:45.000Z,40.78
2022-10-23T10:17:17.586Z,43.79
2022-10-23T10:20:03.856Z,42.37
2022-10-23T10:23:03.707Z,42.80
2022-10-23T10:25:52.143Z,44.00
2022-10-23T10:28:18.868Z,40.84
2022-10-23T10:31:03.899Z,42.16
2022-10-23T10:33:45.578Z,42.08
2022-10-23T10:36:40.050Z,42.04
2022-10-23T10:39:21.644Z,44.28
2022-10-23T10:41:57.160Z,44.28
2022-10-23T10:44:26.671Z,44.89
2022-10-23T10:47:15.939Z,43.12
2022-10-23T10:50:03.092Z,42.58
2022-10-23T10:52:36.941Z,41.28
2022-10-23T10:55:18.369Z,45.05
2022-10-23T10:57:54.949Z,45.34
2022-10-23T11:00:23.939Z,41.39
2022-10-23T11:03:02.814Z,42.52
2022-10-23T11:05:33.597Z,40.67
2022-10-23T11:08:07.274Z,44.39
2022-10-23T11:10:36.233Z,40.41
2022-10-23T11:13:04.356Z,42.05
2022-10-23T11:15:40.823Z,42.15
2022-10-23T11:18:19.447Z,41.02
2022-10-23T11:21:30.604Z,41.27
2022-10-23T11:24:24.523Z,38.65
2022-10-23T11:27:02.919Z,40.66
2022-10-23T11:29:44.496Z,41.84
2022-10-23T11:32:29.285Z,41.58
2022-10-23T11:34:55.823Z,41.08
2022-10-23T11:37:24.626Z,41.47
2022-10-23T11:40:06.392Z,39.01
2022-10-23T11:42:46.892Z,40.70
2022-10-23T11:45:28.640Z,41.47
2022-10-23T11:47:59.875Z,39.74
2022-10-23T11:50:29.763Z,41.80
2022-10-23T11:53:14.651Z,41.72
2022-10-23T11:56:03.044Z,39.33
2022-10-23T11:58:57.379Z,41.22
2022-10-23T12:01:45.582Z,40.71
2022-10-23T12:04:15.417Z,41.82
2022-10-23T12:06:46.522Z,39.52
2022-10-23T12:09:46.627Z,40.15
2022-10-23T12:12:16.639Z,38.68
2022-10-23T12:14:51.267Z,41.23
2022-10-23T12:17:23.754Z,38.61
2022-10-23T12:19:55.394Z,42.23
2022-10-23T12:22:27.913Z,42.33
2022-10-23T12:25:11.553Z,40.89
2022-10-23T12:27:52.814Z,41.18
2022-10-23T12:30:21.386Z,40.95
2022-10-23T12:33:03.254Z,41.31
2022-10-23T12:35:48.975Z,40.91
2022-10-23T12:38:20.249Z,39.96
2022-10-23T12:40:52.564Z,38.55
2022-10-23T12:43:32.423Z,37.95
2022-10-23T12:46:17.733Z,39.74
2022-10-23T12:48:53.516Z,38.39
2022-10-23T12:51:24.193Z,40.31
2022-10-23T12:53:51.374Z,41.75
2022-10-23T12:56:18.650Z,41.11
2022-10-23T12:58:50.409Z,40.55
2022-10-23T13:01:43.925Z,41.33
2022-10-23T13:04:10.820Z,41.40
2022-10-23T13:06:39.619Z,41.44
2022-10-23T13:09:15.226Z,41.83
2022-10-23T13:11:42.575Z,41.40
2022-10-23T13:14:30.002Z,41.32
2022-10-23T13:17:06.547Z,41.27
2022-10-23T13:19:33.820Z,42.95
2022-10-23T13:22:02.873Z,42.07
2022-10-23T13:24:31.143Z,43.11
2022-10-23T13:26:59.021Z,42.21
2022-10-23T13:31:57.632Z,39.43
2022-10-23T13:34:26.844Z,38.76
2022-10-23T13:36:56.068Z,38.80
2022-10-23T13:39:33.865Z,38.20
2022-10-23T13:42:10.567Z,38.18
2022-10-23T13:44:38.020Z,38.54
2022-10-23T13:47:05.390Z,40.47
2022-10-23T13:49:32.110Z,38.73
2022-10-23T13:52:01.419Z,38.71
2022-10-23T13:54:29.152Z,38.38
2022-10-23T13:56:56.864Z,37.87
2022-10-23T13:59:24.005Z,38.46
2022-10-23T14:01:51.227Z,37.75
2022-10-23T14:04:18.862Z,40.94
2022-10-23T14:06:45.816Z,40.29
2022-10-23T14:09:17.768Z,39.56
2022-10-23T14:11:44.965Z,40.11
2022-10-23T14:14:11.371Z,40.30
2022-10-23T14:16:37.906Z,39.97
2022-10-23T14:19:04.522Z,38.75
2022-10-23T14:21:31.110Z,40.10
2022-10-23T14:23:57.740Z,38.53
2022-10-23T14:26:27.592Z,41.58
2022-10-23T14:28:56.052Z,40.01
2022-10-23T14:31:23.832Z,43.27
2022-10-23T14:33:56.048Z,45.15
2022-10-23T14:36:23.144Z,46.14
2022-10-23T14:38:53.559Z,42.94
2022-10-23T14:41:22.238Z,46.01
2022-10-23T14:43:48.745Z,47.54
2022-10-23T14:46:17.606Z,47.86
2022-10-23T14:48:46.252Z,48.54
2022-10-23T14:51:18.089Z,47.93
2022-10-23T14:53:45.427Z,48.30
2022-10-23T14:56:12.141Z,50.33
2022-10-23T14:58:38.760Z,50.08
2022-10-23T15:01:05.503Z,51.49
2022-10-23T15:03:32.163Z,51.58
2022-10-23T15:05:58.778Z,53.03
2022-10-23T15:08:25.520Z,52.03
2022-10-23T15:10:52.059Z,52.20
2022-10-23T15:13:18.673Z,52.56
2022-10-23T15:15:45.376Z,49.67
2022-10-23T15:18:11.957Z,50.21
2022-10-23T15:20:38.547Z,53.43
2022-10-23T15:23:05.079Z,53.68
2022-10-23T15:25:31.644Z,53.48
2022-10-23T15:27:58.155Z,54.96
2022-10-23T15:30:24.717Z,53.30
2022-10-23T15:32:51.309Z,56.08
2022-10-23T15:35:17.900Z,56.15
2022-10-23T15:37:44.772Z,55.19
2022-10-23T15:40:11.929Z,55.73
2022-10-23T15:42:38.478Z,55.96
2022-10-23T15:45:05.484Z,55.46
2022-10-23T15:47:32.015Z,55.98
2022-10-23T15:49:58.568Z,56.54
2022-10-23T15:52:25.116Z,56.48
2022-10-23T15:54:51.646Z,56.31
2022-10-23T15:57:18.208Z,56.73
2022-10-23T15:59:44.734Z,56.43
2022-10-23T16:02:11.949Z,57.07
2022-10-23T16:04:38.485Z,57.77
2022-10-23T16:07:05.039Z,57.93
2022-10-23T16:09:32.948Z,57.63
2022-10-23T16:11:59.590Z,58.00
2022-10-23T16:14:26.094Z,58.31
2022-10-23T16:16:52.721Z,57.70
2022-10-23T16:19:19.496Z,58.50
2022-10-23T16:21:46.086Z,58.87
2022-10-23T16:24:12.721Z,59.56
2022-10-23T16:26:39.704Z,59.70
2022-10-23T16:29:08.184Z,58.78
2022-10-23T16:31:35.682Z,59.03
2022-10-23T16:34:16.604Z,59.39
2022-10-23T16:36:43.282Z,58.87
2022-10-23T16:39:50.655Z,60.18
2022-10-23T16:44:44.491Z,61.97
2022-10-23T16:47:11.081Z,62.64
2022-10-23T16:49:37.606Z,62.03
2022-10-23T16:52:04.260Z,62.86
2022-10-23T16:54:30.831Z,63.89
2022-10-23T16:56:58.631Z,64.76
2022-10-23T16:59:25.198Z,64.64
2022-10-23T17:01:51.952Z,64.49
2022-10-23T17:04:18.685Z,64.75
2022-10-23T17:06:45.504Z,64.96
2022-10-23T17:09:12.221Z,64.55
2022-10-23T17:11:40.507Z,63.06
2022-10-23T17:14:12.017Z,63.94
2022-10-23T17:16:48.212Z,65.40
2022-10-23T17:19:33.005Z,64.99
2022-10-23T17:22:03.497Z,62.53
2022-10-23T17:24:29.901Z,64.47
2022-10-23T17:26:57.021Z,63.90
2022-10-23T17:29:23.630Z,62.97
2022-10-23T17:31:51.406Z,63.87
2022-10-23T17:34:21.578Z,64.61
2022-10-23T17:36:52.188Z,63.38
2022-10-23T17:39:22.253Z,63.91
2022-10-23T17:41:49.654Z,64.07
2022-10-23T17:44:16.202Z,64.09
2022-10-23T17:46:43.159Z,63.93
2022-10-23T17:49:10.792Z,63.71
2022-10-23T17:51:37.649Z,64.87
2022-10-23T17:54:07.194Z,66.86
2022-10-23T17:56:36.538Z,66.89
2022-10-23T17:59:09.782Z,66.93
2022-10-23T18:01:36.709Z,68.35
2022-10-23T18:04:05.585Z,68.04
2022-10-23T18:06:35.657Z,69.96
2022-10-23T18:09:04.638Z,71.67
2022-10-23T18:11:34.583Z,70.23
2022-10-23T18:14:01.692Z,71.73
2022-10-23T18:16:28.615Z,73.09
2022-10-23T18:18:55.670Z,73.71
2022-10-23T18:21:24.016Z,74.12
2022-10-23T18:23:51.447Z,74.27
2022-10-23T18:26:19.952Z,75.56
2022-10-23T18:28:48.336Z,75.29
2022-10-23T18:31:16.571Z,73.59
2022-10-23T18:33:43.327Z,72.80
2022-10-23T18:36:22.609Z,72.65
2022-10-23T18:38:50.309Z,73.31
2022-10-23T18:41:18.026Z,74.56
2022-10-23T18:43:44.901Z,74.67
2022-10-23T18:46:15.260Z,74.40
2022-10-23T18:48:42.710Z,73.74
2022-10-23T18:51:21.953Z,73.75
2022-10-23T18:53:49.170Z,74.08
2022-10-23T18:56:22.052Z,74.49
2022-10-23T18:58:53.704Z,74.78
2022-10-23T19:01:21.073Z,79.72
2022-10-23T19:03:47.818Z,82.50
2022-10-23T19:06:15.162Z,78.23
2022-10-23T19:08:43.558Z,80.29
2022-10-23T19:11:11.826Z,79.76
2022-10-23T19:13:39.603Z,82.15
2022-10-23T19:16:22.348Z,80.68
2022-10-23T19:19:15.099Z,80.76
2022-10-23T19:21:42.499Z,81.20
2022-10-23T19:24:12.047Z,80.35
2022-10-23T19:26:40.447Z,79.94
2022-10-23T19:29:09.895Z,81.03
2022-10-23T19:31:36.603Z,80.76
2022-10-23T19:34:03.648Z,83.38
2022-10-23T19:36:31.824Z,82.17
2022-10-23T19:38:58.436Z,81.49
2022-10-23T19:41:25.027Z,82.09
2022-10-23T19:43:51.551Z,81.43
2022-10-23T19:46:18.112Z,80.27
2022-10-23T19:48:46.415Z,81.44
2022-10-23T19:51:13.558Z,82.71
2022-10-23T19:53:41.964Z,83.81
2022-10-23T19:56:10.883Z,83.52
2022-10-23T19:58:38.009Z,84.34
2022-10-23T20:01:13.840Z,83.27
2022-10-23T20:03:41.792Z,85.24
2022-10-23T20:06:13.519Z,85.72
2022-10-23T20:08:41.286Z,85.17
2022-10-23T20:11:09.326Z,83.32
2022-10-23T20:13:36.199Z,82.29
2022-10-23T20:16:02.705Z,83.41
2022-10-23T20:18:29.359Z,85.48
2022-10-23T20:20:55.925Z,85.35
2022-10-23T20:23:22.849Z,85.16
2022-10-23T20:25:49.393Z,86.66
2022-10-23T20:28:16.048Z,86.67
2022-10-23T20:30:42.675Z,85.98
2022-10-23T20:33:09.405Z,84.98
2022-10-23T20:35:42.595Z,84.51
2022-10-23T20:38:09.649Z,85.04
2022-10-23T20:40:36.216Z,85.98
2022-10-23T20:43:03.345Z,87.50
2022-10-23T20:45:29.912Z,87.49
2022-10-23T20:47:56.818Z,86.37
2022-10-23T20:50:23.928Z,86.23
2022-10-23T20:52:50.899Z,86.69
2022-10-23T20:55:18.108Z,86.17
2022-10-23T20:57:44.933Z,85.51
2022-10-23T21:00:12.317Z,87.72
2022-10-23T21:02:38.901Z,89.61
2022-10-23T21:05:05.992Z,89.09
2022-10-23T21:07:32.527Z,88.00
2022-10-23T21:09:59.399Z,88.82
2022-10-23T21:12:25.900Z,90.00
2022-10-23T21:14:53.579Z,89.44
2022-10-23T21:17:20.420Z,89.20
2022-10-23T21:19:47.129Z,89.35
2022-10-23T21:22:13.706Z,88.97
2022-10-23T21:24:40.249Z,87.31
2022-10-23T21:27:06.843Z,89.31
2022-10-23T21:29:33.392Z,90.63
2022-10-23T21:32:01.650Z,90.36
2022-10-23T21:34:29.342Z,89.57
2022-10-23T21:39:46.333Z,88.10
2022-10-23T21:42:14.124Z,89.08
2022-10-23T21:44:40.942Z,89.61
2022-10-23T21:47:07.479Z,89.09
2022-10-23T21:49:34.056Z,91.15
2022-10-23T21:52:00.548Z,89.94
2022-10-23T21:54:27.147Z,90.67
2022-10-23T21:56:54.021Z,90.39
2022-10-23T21:59:24.318Z,90.52
2022-10-23T22:01:52.060Z,90.49
2022-10-23T22:04:19.781Z,89.01
2022-10-23T22:06:48.754Z,89.88
2022-10-23T22:09:19.196Z,90.59
2022-10-23T22:11:45.943Z,91.65
2022-10-23T22:14:12.509Z,91.41
2022-10-23T22:16:39.050Z,90.76
2022-10-23T22:19:05.644Z,92.43
2022-10-23T22:21:32.198Z,93.89
2022-10-23T22:24:00.334Z,92.39
2022-10-23T22:26:28.891Z,92.58
2022-10-23T22:28:58.288Z,93.82
2022-10-23T22:31:27.899Z,92.79
2022-10-23T22:33:55.560Z,92.62
2022-10-23T22:36:22.062Z,92.92
2022-10-23T22:38:48.738Z,92.33
2022-10-23T22:41:16.008Z,93.08
2022-10-23T22:43:42.657Z,94.33
2022-10-23T22:46:15.337Z,93.56
2022-10-23T22:48:42.478Z,93.75
2022-10-23T22:51:12.125Z,93.61
2022-10-23T22:53:38.725Z,94.03
2022-10-23T22:56:10.052Z,94.43
2022-10-23T22:58:37.116Z,93.77
2022-10-23T23:01:12.141Z,93.43
2022-10-23T23:03:38.951Z,94.56
2022-10-23T23:06:06.822Z,94.22
2022-10-23T23:08:34.923Z,94.18
2022-10-23T23:11:01.570Z,93.94
2022-10-23T23:13:28.211Z,94.54
2022-10-23T23:15:55.169Z,93.22
2022-10-23T23:18:22.351Z,93.57
2022-10-23T23:20:49.155Z,95.03
2022-10-23T23:23:15.776Z,94.19
2022-10-23T23:25:48.463Z,93.84
2022-10-23T23:28:16.883Z,95.00
2022-10-23T23:30:43.522Z,94.26
2022-10-23T23:33:11.776Z,94.94
2022-10-23T23:35:46.115Z,94.92
2022-10-23T23:38:13.234Z,94.38
2022-10-23T23:40:40.496Z,94.93
2022-10-23T23:43:07.076Z,95.57
2022-10-23T23:45:33.596Z,96.85
2022-10-23T23:48:00.163Z,96.76
2022-10-23T23:50:28.003Z,96.92
2022-10-23T23:52:54.523Z,96.77
2022-10-23T23:55:21.048Z,96.25
2022-10-23T23:57:47.984Z,96.11
